sensor_id;sensor_type;location;lat;lon;timestamp;temperature;humidity
22442;DHT22;11388;54.456;9.752;2023-07-24T00:00:14;17.90;99.90
22442;DHT22;11388;54.456;9.752;2023-07-24T00:02:40;17.80;99.90
22442;DHT22;11388;54.456;9.752;2023-07-24T00:05:06;17.80;99.90
22442;DHT22;11388;54.456;9.752;2023-07-24T00:07:32;17.80;99.90
22442;DHT22;11388;54.456;9.752;2023-07-24T00:10:01;17.80;99.90
22442;DHT22;11388;54.456;9.752;2023-07-24T00:12:27;17.80;99.90
22442;DHT22;11388;54.456;9.752;2023-07-24T00:14:53;17.80;99.90
22442;DHT22;11388;54.456;9.752;2023-07-24T00:17:18;17.80;99.90
22442;DHT22;11388;54.456;9.752;2023-07-24T00:19:44;17.80;99.90
22442;DHT22;11388;54.456;9.752;2023-07-24T00:22:10;17.80;99.90
22442;DHT22;11388;54.456;9.752;2023-07-24T00:24:36;17.80;99.90
22442;DHT22;11388;54.456;9.752;2023-07-24T00:27:01;17.80;99.90
22442;DHT22;11388;54.456;9.752;2023-07-24T00:29:28;17.80;99.90
22442;DHT22;11388;54.456;9.752;2023-07-24T00:31:54;17.70;99.90
22442;DHT22;11388;54.456;9.752;2023-07-24T00:34:20;17.70;99.90
22442;DHT22;11388;54.456;9.752;2023-07-24T00:36:46;17.70;99.90
22442;DHT22;11388;54.456;9.752;2023-07-24T00:39:13;17.70;99.90
22442;DHT22;11388;54.456;9.752;2023-07-24T00:41:39;17.60;99.90
22442;DHT22;11388;54.456;9.752;2023-07-24T00:44:05;17.60;99.90
22442;DHT22;11388;54.456;9.752;2023-07-24T00:46:31;17.70;99.90
22442;DHT22;11388;54.456;9.752;2023-07-24T00:48:58;17.60;99.90
22442;DHT22;11388;54.456;9.752;2023-07-24T00:51:26;17.60;99.90
22442;DHT22;11388;54.456;9.752;2023-07-24T00:54:00;17.60;99.90
22442;DHT22;11388;54.456;9.752;2023-07-24T00:56:27;17.60;99.90
22442;DHT22;11388;54.456;9.752;2023-07-24T00:58:54;17.60;99.90
22442;DHT22;11388;54.456;9.752;2023-07-24T01:01:21;17.60;99.90
22442;DHT22;11388;54.456;9.752;2023-07-24T01:03:47;17.50;99.90
22442;DHT22;11388;54.456;9.752;2023-07-24T01:06:13;17.60;99.90
22442;DHT22;11388;54.456;9.752;2023-07-24T01:08:42;17.60;99.90
22442;DHT22;11388;54.456;9.752;2023-07-24T01:11:25;17.60;99.90
22442;DHT22;11388;54.456;9.752;2023-07-24T01:14:02;17.60;99.90
22442;DHT22;11388;54.456;9.752;2023-07-24T01:16:40;17.60;99.90
22442;DHT22;11388;54.456;9.752;2023-07-24T01:19:12;17.60;99.90
22442;DHT22;11388;54.456;9.752;2023-07-24T01:22:02;17.60;99.90
22442;DHT22;11388;54.456;9.752;2023-07-24T01:27:32;17.70;99.90
22442;DHT22;11388;54.456;9.752;2023-07-24T01:29:58;17.70;99.90
22442;DHT22;11388;54.456;9.752;2023-07-24T01:32:23;17.70;99.90
22442;DHT22;11388;54.456;9.752;2023-07-24T01:34:50;17.70;99.90
22442;DHT22;11388;54.456;9.752;2023-07-24T01:37:16;17.70;99.90
22442;DHT22;11388;54.456;9.752;2023-07-24T01:39:44;17.80;99.90
22442;DHT22;11388;54.456;9.752;2023-07-24T01:42:10;17.80;99.90
22442;DHT22;11388;54.456;9.752;2023-07-24T01:44:36;17.80;99.90
22442;DHT22;11388;54.456;9.752;2023-07-24T01:47:01;17.80;99.90
22442;DHT22;11388;54.456;9.752;2023-07-24T01:49:27;17.80;99.90
22442;DHT22;11388;54.456;9.752;2023-07-24T01:51:53;17.90;99.90
22442;DHT22;11388;54.456;9.752;2023-07-24T01:54:18;17.90;99.90
22442;DHT22;11388;54.456;9.752;2023-07-24T01:56:44;18.00;99.90
22442;DHT22;11388;54.456;9.752;2023-07-24T01:59:10;18.00;99.90
22442;DHT22;11388;54.456;9.752;2023-07-24T02:01:36;18.00;99.90
22442;DHT22;11388;54.456;9.752;2023-07-24T02:04:02;18.00;99.90
22442;DHT22;11388;54.456;9.752;2023-07-24T02:06:27;17.90;99.90
22442;DHT22;11388;54.456;9.752;2023-07-24T02:08:53;17.90;99.90
22442;DHT22;11388;54.456;9.752;2023-07-24T02:11:19;18.00;99.90
22442;DHT22;11388;54.456;9.752;2023-07-24T02:13:46;18.00;99.90
22442;DHT22;11388;54.456;9.752;2023-07-24T02:16:12;18.00;99.90
22442;DHT22;11388;54.456;9.752;2023-07-24T02:18:42;17.90;99.90
22442;DHT22;11388;54.456;9.752;2023-07-24T02:21:08;17.90;99.90
22442;DHT22;11388;54.456;9.752;2023-07-24T02:23:34;17.90;99.90
22442;DHT22;11388;54.456;9.752;2023-07-24T02:26:03;17.80;99.90
22442;DHT22;11388;54.456;9.752;2023-07-24T02:28:31;17.90;99.90
22442;DHT22;11388;54.456;9.752;2023-07-24T02:30:56;17.80;99.90
22442;DHT22;11388;54.456;9.752;2023-07-24T02:33:26;17.90;99.90
22442;DHT22;11388;54.456;9.752;2023-07-24T02:35:52;17.90;99.90
22442;DHT22;11388;54.456;9.752;2023-07-24T02:38:18;17.90;99.90
22442;DHT22;11388;54.456;9.752;2023-07-24T02:40:44;17.90;99.90
22442;DHT22;11388;54.456;9.752;2023-07-24T02:43:10;18.00;99.90
22442;DHT22;11388;54.456;9.752;2023-07-24T02:45:37;18.00;99.90
22442;DHT22;11388;54.456;9.752;2023-07-24T02:48:03;18.00;99.90
22442;DHT22;11388;54.456;9.752;2023-07-24T02:50:30;18.00;99.90
22442;DHT22;11388;54.456;9.752;2023-07-24T02:52:55;18.10;99.90
22442;DHT22;11388;54.456;9.752;2023-07-24T02:55:21;18.20;99.90
22442;DHT22;11388;54.456;9.752;2023-07-24T02:57:47;18.10;99.90
22442;DHT22;11388;54.456;9.752;2023-07-24T03:00:13;18.10;99.90
22442;DHT22;11388;54.456;9.752;2023-07-24T03:02:39;18.10;99.90
22442;DHT22;11388;54.456;9.752;2023-07-24T03:05:05;18.10;99.90
22442;DHT22;11388;54.456;9.752;2023-07-24T03:07:32;18.20;99.90
22442;DHT22;11388;54.456;9.752;2023-07-24T03:09:57;18.20;99.90
22442;DHT22;11388;54.456;9.752;2023-07-24T03:12:23;18.10;99.90
22442;DHT22;11388;54.456;9.752;2023-07-24T03:14:49;18.20;99.90
22442;DHT22;11388;54.456;9.752;2023-07-24T03:17:15;18.20;99.90
22442;DHT22;11388;54.456;9.752;2023-07-24T03:19:41;18.20;99.90
22442;DHT22;11388;54.456;9.752;2023-07-24T03:22:07;18.20;99.90
22442;DHT22;11388;54.456;9.752;2023-07-24T03:24:34;18.20;99.90
22442;DHT22;11388;54.456;9.752;2023-07-24T03:27:00;18.30;99.90
22442;DHT22;11388;54.456;9.752;2023-07-24T03:29:26;18.20;99.90
22442;DHT22;11388;54.456;9.752;2023-07-24T03:31:52;18.30;99.90
22442;DHT22;11388;54.456;9.752;2023-07-24T03:34:18;18.30;99.90
22442;DHT22;11388;54.456;9.752;2023-07-24T03:36:44;18.30;99.90
22442;DHT22;11388;54.456;9.752;2023-07-24T03:39:10;18.30;99.90
22442;DHT22;11388;54.456;9.752;2023-07-24T03:41:37;18.30;99.90
22442;DHT22;11388;54.456;9.752;2023-07-24T03:44:02;18.30;99.90
22442;DHT22;11388;54.456;9.752;2023-07-24T03:46:28;18.30;99.90
22442;DHT22;11388;54.456;9.752;2023-07-24T03:48:54;18.20;99.90
22442;DHT22;11388;54.456;9.752;2023-07-24T03:51:20;18.30;99.90
22442;DHT22;11388;54.456;9.752;2023-07-24T03:53:48;18.30;99.90
22442;DHT22;11388;54.456;9.752;2023-07-24T03:56:13;18.30;99.90
22442;DHT22;11388;54.456;9.752;2023-07-24T03:58:39;18.20;99.90
22442;DHT22;11388;54.456;9.752;2023-07-24T04:01:06;18.30;99.90
22442;DHT22;11388;54.456;9.752;2023-07-24T04:03:31;18.20;99.90
22442;DHT22;11388;54.456;9.752;2023-07-24T04:05:57;18.30;99.90
22442;DHT22;11388;54.456;9.752;2023-07-24T04:08:23;18.30;99.90
22442;DHT22;11388;54.456;9.752;2023-07-24T04:10:48;18.30;99.90
22442;DHT22;11388;54.456;9.752;2023-07-24T04:13:14;18.20;99.90
22442;DHT22;11388;54.456;9.752;2023-07-24T04:15:40;18.30;99.90
22442;DHT22;11388;54.456;9.752;2023-07-24T04:18:06;18.30;99.90
22442;DHT22;11388;54.456;9.752;2023-07-24T04:20:31;18.40;99.90
22442;DHT22;11388;54.456;9.752;2023-07-24T04:22:57;18.30;99.90
22442;DHT22;11388;54.456;9.752;2023-07-24T04:25:23;18.30;99.90
22442;DHT22;11388;54.456;9.752;2023-07-24T04:27:49;18.30;99.90
22442;DHT22;11388;54.456;9.752;2023-07-24T04:30:14;18.30;99.90
22442;DHT22;11388;54.456;9.752;2023-07-24T04:32:42;18.30;99.90
22442;DHT22;11388;54.456;9.752;2023-07-24T04:35:08;18.30;99.90
22442;DHT22;11388;54.456;9.752;2023-07-24T04:37:34;18.10;99.90
22442;DHT22;11388;54.456;9.752;2023-07-24T04:40:00;18.20;99.90
22442;DHT22;11388;54.456;9.752;2023-07-24T04:42:26;18.20;99.90
22442;DHT22;11388;54.456;9.752;2023-07-24T04:44:51;18.20;99.90
22442;DHT22;11388;54.456;9.752;2023-07-24T04:47:17;18.30;99.90
22442;DHT22;11388;54.456;9.752;2023-07-24T04:49:43;18.30;99.90
22442;DHT22;11388;54.456;9.752;2023-07-24T04:52:09;18.30;99.90
22442;DHT22;11388;54.456;9.752;2023-07-24T04:54:34;18.30;99.90
22442;DHT22;11388;54.456;9.752;2023-07-24T04:57:00;18.40;99.90
22442;DHT22;11388;54.456;9.752;2023-07-24T04:59:26;18.30;99.90
22442;DHT22;11388;54.456;9.752;2023-07-24T05:01:51;18.30;99.90
22442;DHT22;11388;54.456;9.752;2023-07-24T05:04:17;18.30;99.90
22442;DHT22;11388;54.456;9.752;2023-07-24T05:06:43;18.30;99.90
22442;DHT22;11388;54.456;9.752;2023-07-24T05:09:08;18.30;99.90
22442;DHT22;11388;54.456;9.752;2023-07-24T05:11:34;18.20;99.90
22442;DHT22;11388;54.456;9.752;2023-07-24T05:14:00;18.20;99.90
22442;DHT22;11388;54.456;9.752;2023-07-24T05:16:26;18.20;99.90
22442;DHT22;11388;54.456;9.752;2023-07-24T05:18:51;18.30;99.90
22442;DHT22;11388;54.456;9.752;2023-07-24T05:21:17;18.30;99.90
22442;DHT22;11388;54.456;9.752;2023-07-24T05:23:47;18.30;99.90
22442;DHT22;11388;54.456;9.752;2023-07-24T05:26:13;18.30;99.90
22442;DHT22;11388;54.456;9.752;2023-07-24T05:28:38;18.20;99.90
22442;DHT22;11388;54.456;9.752;2023-07-24T05:31:05;18.20;99.90
22442;DHT22;11388;54.456;9.752;2023-07-24T05:33:31;18.20;99.90
22442;DHT22;11388;54.456;9.752;2023-07-24T05:35:58;18.40;99.90
22442;DHT22;11388;54.456;9.752;2023-07-24T05:38:25;18.40;99.90
22442;DHT22;11388;54.456;9.752;2023-07-24T05:41:02;18.40;99.90
22442;DHT22;11388;54.456;9.752;2023-07-24T05:43:31;18.40;99.90
22442;DHT22;11388;54.456;9.752;2023-07-24T05:45:57;18.50;99.90
22442;DHT22;11388;54.456;9.752;2023-07-24T05:48:24;18.50;99.90
22442;DHT22;11388;54.456;9.752;2023-07-24T05:50:50;18.40;99.90
22442;DHT22;11388;54.456;9.752;2023-07-24T05:53:16;18.50;99.90
22442;DHT22;11388;54.456;9.752;2023-07-24T05:55:42;18.40;99.90
22442;DHT22;11388;54.456;9.752;2023-07-24T05:58:09;18.40;99.90
22442;DHT22;11388;54.456;9.752;2023-07-24T06:00:35;18.40;99.90
22442;DHT22;11388;54.456;9.752;2023-07-24T06:03:05;18.50;99.90
22442;DHT22;11388;54.456;9.752;2023-07-24T06:05:30;18.50;99.90
22442;DHT22;11388;54.456;9.752;2023-07-24T06:07:56;18.50;99.90
22442;DHT22;11388;54.456;9.752;2023-07-24T06:46:53;19.10;99.90
22442;DHT22;11388;54.456;9.752;2023-07-24T06:49:21;18.90;99.90
22442;DHT22;11388;54.456;9.752;2023-07-24T06:51:46;18.90;99.90
22442;DHT22;11388;54.456;9.752;2023-07-24T06:54:20;19.10;99.90
22442;DHT22;11388;54.456;9.752;2023-07-24T06:56:45;19.20;99.90
22442;DHT22;11388;54.456;9.752;2023-07-24T06:59:11;19.20;99.90
22442;DHT22;11388;54.456;9.752;2023-07-24T07:01:45;19.20;99.90
22442;DHT22;11388;54.456;9.752;2023-07-24T07:10:58;19.40;99.90
22442;DHT22;11388;54.456;9.752;2023-07-24T07:13:37;19.50;99.90
22442;DHT22;11388;54.456;9.752;2023-07-24T08:25:06;20.00;99.90
22442;DHT22;11388;54.456;9.752;2023-07-24T08:27:32;20.20;99.90
22442;DHT22;11388;54.456;9.752;2023-07-24T08:29:58;20.10;99.90
22442;DHT22;11388;54.456;9.752;2023-07-24T08:37:37;20.60;99.90
22442;DHT22;11388;54.456;9.752;2023-07-24T08:40:04;20.70;99.90
22442;DHT22;11388;54.456;9.752;2023-07-24T09:21:50;20.30;99.90
22442;DHT22;11388;54.456;9.752;2023-07-24T09:24:15;19.90;99.90
22442;DHT22;11388;54.456;9.752;2023-07-24T09:27:08;19.90;99.90
22442;DHT22;11388;54.456;9.752;2023-07-24T09:29:35;19.80;99.90
22442;DHT22;11388;54.456;9.752;2023-07-24T09:32:02;19.70;99.90
22442;DHT22;11388;54.456;9.752;2023-07-24T09:34:29;19.60;99.90
22442;DHT22;11388;54.456;9.752;2023-07-24T09:36:55;19.60;99.90
22442;DHT22;11388;54.456;9.752;2023-07-24T09:39:30;19.60;99.90
22442;DHT22;11388;54.456;9.752;2023-07-24T09:42:03;19.90;99.90
22442;DHT22;11388;54.456;9.752;2023-07-24T09:44:33;20.20;99.90
22442;DHT22;11388;54.456;9.752;2023-07-24T09:47:00;20.40;99.90
22442;DHT22;11388;54.456;9.752;2023-07-24T09:49:29;20.50;99.90
22442;DHT22;11388;54.456;9.752;2023-07-24T09:51:58;20.60;99.90
22442;DHT22;11388;54.456;9.752;2023-07-24T09:54:30;20.50;99.90
22442;DHT22;11388;54.456;9.752;2023-07-24T09:56:57;20.60;99.90
22442;DHT22;11388;54.456;9.752;2023-07-24T09:59:27;20.70;99.90
22442;DHT22;11388;54.456;9.752;2023-07-24T10:01:54;20.80;99.90
22442;DHT22;11388;54.456;9.752;2023-07-24T10:04:21;21.00;99.90
22442;DHT22;11388;54.456;9.752;2023-07-24T10:06:49;21.20;99.90
22442;DHT22;11388;54.456;9.752;2023-07-24T10:09:18;21.20;99.90
22442;DHT22;11388;54.456;9.752;2023-07-24T10:11:47;21.40;99.90
22442;DHT22;11388;54.456;9.752;2023-07-24T10:14:13;21.50;99.90
22442;DHT22;11388;54.456;9.752;2023-07-24T10:16:39;21.60;99.90
22442;DHT22;11388;54.456;9.752;2023-07-24T10:19:15;21.80;99.90
22442;DHT22;11388;54.456;9.752;2023-07-24T10:21:51;21.80;99.90
22442;DHT22;11388;54.456;9.752;2023-07-24T10:24:17;22.10;99.90
22442;DHT22;11388;54.456;9.752;2023-07-24T10:26:43;22.20;99.90
22442;DHT22;11388;54.456;9.752;2023-07-24T10:29:09;22.20;99.90
22442;DHT22;11388;54.456;9.752;2023-07-24T10:31:37;21.90;99.90
22442;DHT22;11388;54.456;9.752;2023-07-24T10:34:04;21.80;99.90
22442;DHT22;11388;54.456;9.752;2023-07-24T10:36:34;21.80;99.90
22442;DHT22;11388;54.456;9.752;2023-07-24T10:39:00;21.60;99.90
22442;DHT22;11388;54.456;9.752;2023-07-24T10:41:36;21.60;99.90
22442;DHT22;11388;54.456;9.752;2023-07-24T10:44:02;21.70;99.90
22442;DHT22;11388;54.456;9.752;2023-07-24T10:46:37;21.80;99.90
22442;DHT22;11388;54.456;9.752;2023-07-24T10:49:03;21.80;99.90
22442;DHT22;11388;54.456;9.752;2023-07-24T10:51:29;21.80;99.90
22442;DHT22;11388;54.456;9.752;2023-07-24T10:53:58;21.90;99.90
22442;DHT22;11388;54.456;9.752;2023-07-24T10:56:23;22.00;99.90
22442;DHT22;11388;54.456;9.752;2023-07-24T10:58:52;22.10;99.90
22442;DHT22;11388;54.456;9.752;2023-07-24T11:01:18;22.10;99.90
22442;DHT22;11388;54.456;9.752;2023-07-24T11:03:44;22.30;99.90
22442;DHT22;11388;54.456;9.752;2023-07-24T11:06:18;22.50;99.90
22442;DHT22;11388;54.456;9.752;2023-07-24T11:08:55;22.70;99.90
22442;DHT22;11388;54.456;9.752;2023-07-24T11:11:31;22.60;99.90
22442;DHT22;11388;54.456;9.752;2023-07-24T11:13:57;22.50;99.90
22442;DHT22;11388;54.456;9.752;2023-07-24T11:16:23;22.50;99.90
22442;DHT22;11388;54.456;9.752;2023-07-24T11:18:50;22.40;99.90
22442;DHT22;11388;54.456;9.752;2023-07-24T11:21:18;22.60;99.90
22442;DHT22;11388;54.456;9.752;2023-07-24T11:23:49;22.70;99.90
22442;DHT22;11388;54.456;9.752;2023-07-24T11:26:15;22.70;99.90
22442;DHT22;11388;54.456;9.752;2023-07-24T11:28:41;22.70;99.90
22442;DHT22;11388;54.456;9.752;2023-07-24T11:31:07;22.90;99.90
22442;DHT22;11388;54.456;9.752;2023-07-24T11:33:36;23.00;99.90
22442;DHT22;11388;54.456;9.752;2023-07-24T11:36:02;23.30;99.90
22442;DHT22;11388;54.456;9.752;2023-07-24T11:38:28;23.20;99.90
22442;DHT22;11388;54.456;9.752;2023-07-24T11:40:55;23.10;99.90
22442;DHT22;11388;54.456;9.752;2023-07-24T11:43:23;22.60;99.90
22442;DHT22;11388;54.456;9.752;2023-07-24T11:45:50;22.40;99.90
22442;DHT22;11388;54.456;9.752;2023-07-24T11:48:27;22.40;99.90
22442;DHT22;11388;54.456;9.752;2023-07-24T11:50:59;22.40;99.90
22442;DHT22;11388;54.456;9.752;2023-07-24T11:53:30;22.30;99.90
22442;DHT22;11388;54.456;9.752;2023-07-24T11:55:58;22.40;99.90
22442;DHT22;11388;54.456;9.752;2023-07-24T11:58:28;22.00;99.90
22442;DHT22;11388;54.456;9.752;2023-07-24T12:00:55;21.90;99.90
22442;DHT22;11388;54.456;9.752;2023-07-24T12:03:23;22.10;99.90
22442;DHT22;11388;54.456;9.752;2023-07-24T12:05:52;22.30;99.90
22442;DHT22;11388;54.456;9.752;2023-07-24T12:08:20;22.30;99.90
22442;DHT22;11388;54.456;9.752;2023-07-24T12:10:49;22.30;99.90
22442;DHT22;11388;54.456;9.752;2023-07-24T12:13:15;22.10;99.90
22442;DHT22;11388;54.456;9.752;2023-07-24T12:15:41;22.20;99.90
22442;DHT22;11388;54.456;9.752;2023-07-24T12:18:06;22.10;99.90
22442;DHT22;11388;54.456;9.752;2023-07-24T12:20:33;21.90;99.90
22442;DHT22;11388;54.456;9.752;2023-07-24T12:22:59;21.90;99.90
22442;DHT22;11388;54.456;9.752;2023-07-24T12:25:25;21.90;99.90
22442;DHT22;11388;54.456;9.752;2023-07-24T12:27:51;22.00;99.90
22442;DHT22;11388;54.456;9.752;2023-07-24T12:35:49;22.40;99.90
22442;DHT22;11388;54.456;9.752;2023-07-24T12:38:49;22.50;99.90
22442;DHT22;11388;54.456;9.752;2023-07-24T12:54:28;27.90;99.90
22442;DHT22;11388;54.456;9.752;2023-07-24T13:13:44;24.80;99.90
22442;DHT22;11388;54.456;9.752;2023-07-24T13:19:54;29.20;99.90
22442;DHT22;11388;54.456;9.752;2023-07-24T13:22:46;30.80;99.90
22442;DHT22;11388;54.456;9.752;2023-07-24T13:28:43;34.30;99.90
22442;DHT22;11388;54.456;9.752;2023-07-24T13:31:41;33.30;98.50
22442;DHT22;11388;54.456;9.752;2023-07-24T13:34:37;32.60;99.90
22442;DHT22;11388;54.456;9.752;2023-07-24T14:43:00;23.50;99.90
22442;DHT22;11388;54.456;9.752;2023-07-24T14:45:26;23.50;99.90
22442;DHT22;11388;54.456;9.752;2023-07-24T14:47:54;23.20;99.90
22442;DHT22;11388;54.456;9.752;2023-07-24T14:50:20;22.90;99.90
